M I D A S
Marine Information and Data Acquisition System
Tripno 661 of the Zeeleeuw from 2004-03-04 07:28:48 to 2004-03-04 15:23:20
Back to CruiseResearch ActivitiesStationsMapUnderway DataData graphs

EquipmentUnitsComment
TimeDGPSUTC
LatitudeDGPSDM.mWGS84
LongitudeDGPSDM.mWGS84
TemperatureSBE03/SBE38deg celciusITS90
ConductivitySBE21S/mITS90
SalinitySBE21 Practical Salinity Units
ChlorophylAChelsea fluorimeterg/lCalibrated in Aceton
Missing or incorrect values are displayed as -999
Sea surface data collected by the RV Zeeleeuw from 2004-03-04 07:28:48 to 2004-03-04 15:23:20
Time Latitude Longitude Temperature Conductivity Salinity ChlorophylA
2004-03-04 07:29:52 51°13.642 2°55.933 12.40337 3.967413 32.011259 -0.477864
2004-03-04 07:30:52 51°13.668 2°55.802 12.439266 3.96678 32.008049 -0.477864
2004-03-04 07:31:51 51°13.682 2°55.777 12.686389 3.966253 32.008883 -0.477864
2004-03-04 07:32:51 51°13.745 2°55.735 5.125706 2.599604 25.364878 6.837076
2004-03-04 07:33:52 51°13.841 2°55.619 4.866147 2.156396 21.41904 5.994341
2004-03-04 07:34:52 51°13.967 2°55.527 4.767275 2.344938 23.604295 6.095469
2004-03-04 07:35:52 51°14.097 2°55.433 4.689095 2.558702 26.029582 5.859503
2004-03-04 07:36:52 51°14.217 2°55.316 4.649127 2.570798 26.227687 4.983059
2004-03-04 07:37:52 51°14.342 2°55.115 4.613011 2.534514 25.853495 4.780802
2004-03-04 07:38:51 51°14.455 2°54.851 4.602295 2.637064 27.028085 5.421281
2004-03-04 07:39:51 51°14.483 2°54.525 4.613164 2.848755 29.431116 5.387571
2004-03-04 07:40:52 51°14.439 2°54.293 4.591423 2.847913 29.436348 5.117896
2004-03-04 07:41:52 51°14.439 2°54.185 4.583154 2.842231 29.383281 4.645965
2004-03-04 07:42:51 51°14.444 2°54.111 4.581827 2.904113 30.099252 4.544836
2004-03-04 07:43:51 51°14.443 2°54.052 4.586472 2.900114 30.054317 4.578546
2004-03-04 07:44:52 51°14.439 2°54.002 4.584073 2.904113 30.099252 4.443708
2004-03-04 07:45:51 51°14.408 2°53.904 4.577793 2.902008 30.089555 4.511127
2004-03-04 07:46:51 51°14.293 2°53.629 4.562577 2.861595 29.6316 4.275161
2004-03-04 07:47:52 51°14.166 2°53.307 4.548737 2.930531 30.436303 4.34258
2004-03-04 07:48:51 51°14.038 2°52.995 4.543833 2.908113 30.192273 3.971777
2004-03-04 07:49:51 51°13.91 2°52.675 4.533309 2.907903 30.200299 3.600973
2004-03-04 07:50:51 51°13.784 2°52.353 4.532185 2.91927 30.335444 3.567264
2004-03-04 07:51:52 51°13.655 2°52.024 4.527025 2.91506 30.289584 3.466136
2004-03-04 07:52:51 51°13.53 2°51.705 4.522988 2.904956 30.182582 3.567264
2004-03-04 07:53:50 51°13.406 2°51.385 4.513023 2.910534 30.248958 3.466136
2004-03-04 07:54:52 51°13.275 2°51.049 4.511132 2.900009 30.136301 3.466136
2004-03-04 07:55:51 51°13.151 2°50.73 4.514301 2.923164 30.405183 3.365007
2004-03-04 07:56:51 51°13.025 2°50.404 4.505714 2.916954 30.336326 3.533554
2004-03-04 07:57:50 51°12.902 2°50.083 4.505919 2.900851 30.151574 3.331298
2004-03-04 07:58:52 51°12.772 2°49.747 4.512001 2.929164 30.476502 3.432426
2004-03-04 07:59:51 51°12.649 2°49.427 4.508679 2.924112 30.417678 3.398717
2004-03-04 08:00:51 51°12.525 2°49.104 4.506072 2.92748 30.460406 3.331298
2004-03-04 08:01:50 51°12.403 2°48.788 4.509701 2.928743 30.477347 3.466136
2004-03-04 08:02:52 51°12.274 2°48.456 4.506634 2.928006 30.465639 3.634683
2004-03-04 08:03:51 51°12.152 2°48.14 4.510417 2.919375 30.366538 3.634683
2004-03-04 08:04:51 51°12.027 2°47.819 4.505817 2.916007 30.332723 3.76952
2004-03-04 08:05:52 51°11.898 2°47.494 4.501932 2.945163 30.669294 3.466136
2004-03-04 08:06:51 51°11.775 2°47.179 4.499376 2.949268 30.718948 3.162751
2004-03-04 08:07:51 51°11.65 2°46.858 4.500296 2.945689 30.67943 3.095332
2004-03-04 08:08:51 51°11.526 2°46.539 4.502494 2.943794 30.655196 3.297589
2004-03-04 08:09:51 51°11.403 2°46.22 4.507554 2.957372 30.80725 2.893076
2004-03-04 08:10:51 51°11.301 2°45.887 4.514199 2.962004 30.858065 2.893076
2004-03-04 08:11:50 51°11.222 2°45.542 4.518236 2.949478 30.710735 2.926785
2004-03-04 08:12:51 51°11.141 2°45.183 4.516038 2.96232 30.855124 2.994204
2004-03-04 08:13:51 51°11.062 2°44.829 4.514607 2.963583 30.871297 2.859366
2004-03-04 08:14:52 51°10.98 2°44.469 4.517674 2.935584 30.547809 2.960494
2004-03-04 08:15:51 51°10.902 2°44.121 4.519411 2.963898 30.874107 2.758238
2004-03-04 08:16:52 51°10.82 2°43.763 4.516907 2.971267 30.958058 2.960494
2004-03-04 08:17:51 51°10.741 2°43.417 4.519462 2.968214 30.922934 2.926785
2004-03-04 08:18:52 51°10.66 2°43.057 4.51936 2.969056 30.9318 2.859366
2004-03-04 08:19:51 51°10.583 2°42.71 4.521046 2.969161 30.931364 2.994204
2004-03-04 08:20:50 51°10.507 2°42.363 4.524266 2.971372 30.952677 2.960494
2004-03-04 08:21:52 51°10.426 2°42.001 4.532288 2.967372 30.903372 2.893076
2004-03-04 08:22:50 51°10.352 2°41.662 4.539133 2.963056 30.847173 2.893076
2004-03-04 08:23:50 51°10.28 2°41.31 4.537805 2.976635 31.001682 3.129042
2004-03-04 08:24:50 51°10.215 2°40.956 4.54603 2.978635 31.021388 2.6234
2004-03-04 08:25:52 51°10.149 2°40.592 4.55461 2.96274 30.832876 2.555982
2004-03-04 08:26:50 51°10.087 2°40.252 4.571922 2.958635 30.770153 2.421144
2004-03-04 08:27:51 51°10.021 2°39.895 4.583205 2.985898 31.070234 2.286306
2004-03-04 08:28:52 51°9.961 2°39.537 4.597191 3.000424 31.227311 2.421144
2004-03-04 08:29:51 51°9.903 2°39.19 4.61199 2.996214 31.166478 2.454853
2004-03-04 08:30:51 51°9.845 2°38.837 4.626327 2.997161 31.164124 2.488563
2004-03-04 08:31:52 51°9.787 2°38.479 4.63505 3.002635 31.214586 2.555982
2004-03-04 08:32:51 51°9.73 2°38.133 4.645659 3.013898 31.334852 2.6234
2004-03-04 08:33:52 51°9.671 2°37.774 4.648719 3.009266 31.277495 2.6234
2004-03-04 08:34:51 51°9.623 2°37.429 4.653665 3.012846 31.314452 2.758238
2004-03-04 08:35:52 51°9.63 2°37.221 4.651268 3.01653 31.351784 2.724529
2004-03-04 08:36:51 51°9.616 2°37.121 4.657336 3.010635 31.287404 2.522272
2004-03-04 08:37:52 51°9.586 2°37.069 4.6632 3.011687 31.289537 2.6234
2004-03-04 08:38:51 51°9.562 2°37.037 4.66009 3.019267 31.376567 2.724529
2004-03-04 08:39:51 51°9.543 2°37.013 4.662231 2.980844 30.940633 2.488563
2004-03-04 08:40:50 51°9.509 2°36.963 4.654532 2.995371 31.103116 2.421144
2004-03-04 08:41:52 51°9.473 2°36.866 4.633571 2.977266 30.915176 2.421144
2004-03-04 08:42:52 51°9.443 2°36.777 4.626123 2.99674 31.149366 2.387435
2004-03-04 08:43:51 51°9.413 2°36.7 4.623776 2.976318 30.919073 2.421144
2004-03-04 08:44:51 51°9.388 2°36.621 4.626429 2.987161 31.042682 2.522272
2004-03-04 08:45:51 51°9.369 2°36.538 4.63403 2.994319 31.12239 2.488563
2004-03-04 08:46:50 51°9.351 2°36.454 4.638621 2.99095 31.07959 2.555982
2004-03-04 08:47:51 51°9.332 2°36.374 4.643313 2.99674 31.138624 2.65711
2004-03-04 08:48:50 51°9.312 2°36.302 4.648923 2.994003 31.101433 2.589691
2004-03-04 08:49:52 51°9.292 2°36.225 4.645659 2.954213 30.647694 2.65711
2004-03-04 08:50:52 51°9.271 2°36.155 4.642089 2.986845 31.020947 2.690819
2004-03-04 08:51:50 51°9.247 2°36.09 4.641783 3.00274 31.205032 2.791947
2004-03-04 08:52:50 51°9.226 2°36.019 4.64163 3.00295 31.207449 2.758238
2004-03-04 08:53:51 51°9.206 2°35.946 4.640049 2.996003 31.132643 2.690819
2004-03-04 08:54:52 51°9.189 2°35.872 4.639335 2.97516 30.892671 2.589691
2004-03-04 08:55:51 51°9.171 2°35.803 4.640661 3.001161 31.192694 2.555982
2004-03-04 08:56:51 51°9.146 2°35.739 4.640151 3.014951 31.350273 2.6234
2004-03-04 08:57:51 51°9.118 2°35.671 4.645506 3.010635 31.301514 2.555982
2004-03-04 08:58:50 51°9.09 2°35.6 4.644384 2.997055 31.14225 2.555982
2004-03-04 08:59:51 51°9.06 2°35.523 4.640508 2.992108 31.084635 2.791947
2004-03-04 09:00:51 51°9.032 2°35.445 4.642089 3.01253 31.319961 2.65711
2004-03-04 09:01:50 51°9.003 2°35.369 4.644435 2.982108 30.970715 2.758238
2004-03-04 09:02:52 51°8.973 2°35.289 4.644486 3.003056 31.209486 2.724529
2004-03-04 09:03:51 51°8.947 2°35.212 4.644588 3.010319 31.292905 2.825657
2004-03-04 09:04:52 51°8.922 2°35.131 4.641579 3.005687 31.242193 2.893076
2004-03-04 09:05:51 51°8.9 2°35.051 4.641579 3.003793 31.22126 2.825657
2004-03-04 09:06:51 51°8.88 2°34.97 4.642854 3.01453 31.343771 2.825657
2004-03-04 09:07:51 51°8.862 2°34.89 4.636937 3.006214 31.250725 2.690819
2004-03-04 09:08:51 51°8.838 2°34.816 4.634693 2.968739 30.822316 2.65711
2004-03-04 09:09:51 51°8.811 2°34.745 4.634693 3.018425 31.395192 2.926785
2004-03-04 09:10:50 51°8.784 2°34.679 4.632602 3.003477 31.225916 2.65711
2004-03-04 09:11:51 51°8.757 2°34.609 4.632092 3.004529 31.23718 2.758238
2004-03-04 09:12:52 51°8.739 2°34.532 4.629796 3.009161 31.291224 2.758238
2004-03-04 09:13:52 51°8.734 2°34.455 4.627347 3.012109 31.329251 2.758238
2004-03-04 09:14:51 51°8.739 2°34.379 4.631479 3.004214 31.238525 2.926785
2004-03-04 09:15:50 51°8.754 2°34.307 4.625511 3.00453 31.244641 2.926785
2004-03-04 09:16:51 51°8.773 2°34.253 4.623011 3.005477 31.259676 3.162751
2004-03-04 09:17:51 51°8.786 2°34.217 4.628827 3.01074 31.317678 2.859366
2004-03-04 09:18:52 51°8.795 2°34.191 4.637753 3.009898 31.301352 2.960494
2004-03-04 09:19:51 51°8.802 2°34.175 4.642752 3.012109 31.319277 2.960494
2004-03-04 09:20:51 51°8.811 2°34.164 4.638417 3.007056 31.260398 3.19646
2004-03-04 09:21:51 51°8.819 2°34.157 4.634132 2.993161 31.105792 3.095332
2004-03-04 09:22:51 51°8.828 2°34.154 4.633418 3.006214 31.259847 3.23017
2004-03-04 09:23:51 51°8.824 2°34.107 4.632857 3.014425 31.354206 3.129042
2004-03-04 09:24:51 51°8.781 2°33.914 4.629898 3.016214 31.371447 3.129042
2004-03-04 09:25:51 51°8.73 2°33.682 4.624848 3.009372 31.298626 3.263879
2004-03-04 09:26:52 51°8.665 2°33.457 4.619032 3.014951 31.370246 3.162751
2004-03-04 09:27:52 51°8.537 2°33.33 4.623215 3.013478 31.353301 3.095332
2004-03-04 09:28:51 51°8.396 2°33.25 4.628368 3.013688 31.35156 3.027913
2004-03-04 09:29:52 51°8.268 2°33.133 4.633418 2.988634 31.0596 3.129042
2004-03-04 09:30:52 51°8.146 2°33.023 4.644435 3.01653 31.370915 3.23017
2004-03-04 09:31:52 51°8.07 2°32.991 4.651625 3.007582 31.262297 3.365007
2004-03-04 09:32:51 51°8.055 2°33.01 4.661415 3.017267 31.363574 2.994204
2004-03-04 09:33:52 51°8.066 2°33.029 4.660498 3.023267 31.427512 3.297589
2004-03-04 09:34:51 51°8.078 2°33.048 4.659376 3.018214 31.370299 3.466136
2004-03-04 09:35:52 51°8.091 2°33.068 4.65805 3.010214 31.278422 3.567264
2004-03-04 09:36:52 51°8.106 2°33.087 4.661619 3.014319 31.326395 3.600973
2004-03-04 09:37:52 51°8.116 2°33.103 4.661161 3.015056 31.334858 3.735811
2004-03-04 09:38:51 51°8.115 2°33.105 4.66682 3.027478 31.47506 3.499845
2004-03-04 09:39:51 51°8.108 2°33.089 4.6736 3.016951 31.345817 3.466136
2004-03-04 09:40:52 51°8.099 2°33.059 4.673651 3.01474 31.322926 3.466136
2004-03-04 09:41:51 51°8.087 2°33.028 4.67518 3.022215 31.408756 3.263879
2004-03-04 09:42:52 51°8.073 2°32.996 4.674925 3.022846 31.409351 3.365007
2004-03-04 09:43:51 51°8.064 2°32.979 4.680125 3.030426 31.499746 3.23017
2004-03-04 09:44:52 51°8.058 2°32.978 4.679003 3.001582 31.161984 3.263879
2004-03-04 09:45:51 51°8.057 2°32.986 4.674008 3.028741 31.477893 3.297589
2004-03-04 09:46:51 51°8.058 2°32.999 4.673753 3.024004 31.424315 3.263879
2004-03-04 09:47:51 51°8.063 2°33.015 4.670745 3.020635 31.387293 3.398717
2004-03-04 09:48:51 51°8.07 2°33.032 4.665392 3.018319 31.364855 3.365007
2004-03-04 09:49:51 51°8.079 2°33.05 4.66993 3.026741 31.462422 3.297589
2004-03-04 09:50:51 51°8.089 2°33.067 4.670541 3.030952 31.504959 3.297589
2004-03-04 09:51:52 51°8.101 2°33.086 4.690675 3.025162 31.428452 3.263879
2004-03-04 09:52:51 51°8.113 2°33.105 4.697911 3.023056 31.395961 3.162751
2004-03-04 09:53:51 51°8.127 2°33.123 4.705707 3.034742 31.517598 3.095332
2004-03-04 09:54:52 51°8.141 2°33.143 4.713298 3.032952 31.496221 3.027913
2004-03-04 09:55:52 51°8.156 2°33.163 4.707541 3.031478 31.475138 3.095332
2004-03-04 09:56:52 51°8.147 2°33.152 4.702446 3.025583 31.412482 3.027913
2004-03-04 09:57:52 51°8.16 2°33.045 4.68043 3.028215 31.453509 3.129042
2004-03-04 09:58:52 51°8.271 2°33.046 4.667126 3.027478 31.460881 3.23017
2004-03-04 09:59:52 51°8.4 2°33.231 4.656725 3.028005 31.47777 3.162751
2004-03-04 10:00:52 51°8.579 2°33.509 4.654685 3.012319 31.305916 3.432426
2004-03-04 10:01:52 51°8.76 2°33.796 4.651421 3.018846 31.38421 3.600973
2004-03-04 10:02:52 51°8.935 2°34.095 4.641426 3.010845 31.298121 3.23017
2004-03-04 10:03:52 51°9.111 2°34.395 4.637447 3.00674 31.259258 3.297589
2004-03-04 10:04:52 51°9.28 2°34.707 4.644792 3.01632 31.366831 2.994204
2004-03-04 10:05:51 51°9.419 2°35.046 4.643007 3.022846 31.435176 3.129042
2004-03-04 10:06:52 51°9.494 2°35.397 4.654838 3.013056 31.322684 3.297589
2004-03-04 10:07:51 51°9.472 2°35.573 4.653869 3.016951 31.362441 2.893076
2004-03-04 10:08:52 51°9.441 2°35.665 4.66009 3.021267 31.407865 3.263879
2004-03-04 10:09:52 51°9.414 2°35.721 4.659478 3.018846 31.374226 4.241452
2004-03-04 10:10:52 51°9.391 2°35.75 4.664271 3.011372 31.28757 3.23017
2004-03-04 10:11:52 51°9.371 2°35.768 4.666871 3.005476 31.207491 3.19646
2004-03-04 10:12:52 51°9.354 2°35.783 4.682724 3.011161 31.266919 2.960494
2004-03-04 10:13:52 51°9.338 2°35.797 4.682877 3.019793 31.351034 2.893076
2004-03-04 10:14:51 51°9.324 2°35.811 4.705401 3.011477 31.255638 2.960494
2004-03-04 10:15:51 51°9.31 2°35.826 4.719615 3.012108 31.251298 3.027913
2004-03-04 10:16:52 51°9.297 2°35.839 4.703873 3.013161 31.260885 3.061623
2004-03-04 10:17:52 51°9.285 2°35.849 4.705911 3.01295 31.256816 3.129042
2004-03-04 10:18:51 51°9.274 2°35.86 4.712738 3.015582 31.289472 3.027913
2004-03-04 10:19:51 51°9.261 2°35.866 4.681501 3.02053 31.364472 3.095332
2004-03-04 10:20:52 51°9.247 2°35.87 4.680023 3.011898 31.276202 3.129042
2004-03-04 10:21:52 51°9.235 2°35.872 4.667839 2.978318 30.900203 3.19646
2004-03-04 10:22:52 51°9.222 2°35.872 4.659172 2.979371 30.916362 3.331298
2004-03-04 10:23:52 51°9.21 2°35.871 4.661517 3.006108 31.227977 2.960494
2004-03-04 10:24:52 51°9.198 2°35.869 4.655654 2.989266 31.038847 3.027913
2004-03-04 10:25:50 51°9.191 2°35.876 4.66529 3.00874 31.256529 2.791947
2004-03-04 10:26:52 51°9.187 2°35.892 4.657082 3.015582 31.337579 3.331298
2004-03-04 10:27:52 51°9.152 2°35.943 4.650504 3.00674 31.246823 2.994204
2004-03-04 10:28:50 51°9.179 2°36.134 4.655807 2.988318 31.037855 3.297589
2004-03-04 10:29:52 51°9.351 2°36.193 4.660651 3.004529 31.21399 3.027913
2004-03-04 10:30:52 51°9.58 2°36.135 4.662588 2.945687 30.533051 3.466136
2004-03-04 10:31:52 51°9.817 2°36.074 4.666055 3.011372 31.273477 3.365007
2004-03-04 10:32:51 51°10.053 2°36.018 4.664882 3.012319 31.290982 3.162751
2004-03-04 10:33:52 51°10.298 2°36.004 4.678952 2.996108 31.101677 2.859366
2004-03-04 10:34:52 51°10.537 2°36.102 4.836105 3.04411 31.532523 3.365007
2004-03-04 10:35:52 51°10.769 2°36.23 4.849374 3.044847 31.503548 4.174033
2004-03-04 10:36:52 51°10.995 2°36.381 4.876615 3.042846 31.464084 3.904358
2004-03-04 10:37:51 51°11.211 2°36.548 4.899222 3.072324 31.767795 3.466136
2004-03-04 10:38:51 51°11.429 2°36.723 4.91913 3.072008 31.74998 3.634683
2004-03-04 10:39:52 51°11.649 2°36.907 4.927457 3.08401 31.873782 3.432426
2004-03-04 10:40:52 51°11.866 2°37.088 4.949893 3.09896 32.019487 3.263879
2004-03-04 10:41:51 51°12.079 2°37.263 4.972423 3.097065 31.988582 3.19646
2004-03-04 10:42:52 51°12.299 2°37.446 4.971561 3.056847 31.507994 3.533554
2004-03-04 10:43:52 51°12.515 2°37.632 4.948117 3.092643 31.933869 3.466136
2004-03-04 10:44:51 51°12.723 2°37.83 4.935732 3.072534 31.724289 3.23017
2004-03-04 10:45:52 51°12.941 2°38.032 4.941975 3.091485 31.943289 3.297589
2004-03-04 10:46:52 51°13.152 2°38.233 4.948878 3.092854 31.950537 3.061623
2004-03-04 10:47:51 51°13.36 2°38.43 4.956998 3.092327 31.935293 3.263879
2004-03-04 10:48:51 51°13.571 2°38.629 4.973184 3.09517 31.956019 3.061623
2004-03-04 10:49:52 51°13.785 2°38.829 4.960347 3.09717 31.972152 2.488563
2004-03-04 10:50:52 51°14.013 2°38.926 4.937356 3.095486 31.978936 2.353725
2004-03-04 10:51:51 51°14.235 2°38.877 4.937305 3.088327 31.91474 2.724529
2004-03-04 10:52:51 51°14.388 2°38.636 4.929234 3.083168 31.849919 2.320016
2004-03-04 10:53:52 51°14.413 2°38.314 4.938118 3.081167 31.845476 2.185178
2004-03-04 10:54:52 51°14.351 2°38.007 4.941569 3.090748 31.940741 2.185178
2004-03-04 10:55:52 51°14.266 2°37.715 4.955171 3.092011 31.933362 2.320016
2004-03-04 10:56:52 51°14.172 2°37.431 4.989467 3.101276 32.017366 2.218888
2004-03-04 10:57:52 51°14.071 2°37.153 5.017408 3.109067 32.080267 2.387435
2004-03-04 10:58:52 51°13.969 2°36.874 5.092041 3.112962 32.07764 2.421144
2004-03-04 10:59:52 51°13.869 2°36.592 5.120341 3.136758 32.300892 2.488563
2004-03-04 11:00:52 51°13.769 2°36.308 5.117203 3.089904 31.740946 2.522272
2004-03-04 11:01:52 51°13.67 2°36.026 5.105459 3.129071 32.209938 2.353725
2004-03-04 11:02:52 51°13.57 2°35.744 5.110825 3.111804 32.011637 2.353725
2004-03-04 11:03:52 51°13.472 2°35.46 5.11371 3.125175 32.157997 2.387435
2004-03-04 11:04:52 51°13.374 2°35.175 5.134866 3.1376 32.295296 2.252597
2004-03-04 11:05:52 51°13.275 2°34.891 5.144126 3.142233 32.329497 2.286306
2004-03-04 11:06:52 51°13.175 2°34.605 5.146807 3.159291 32.517041 2.488563
2004-03-04 11:07:52 51°13.075 2°34.316 5.154193 3.150551 32.411551 2.65711
2004-03-04 11:08:52 51°12.975 2°34.028 5.147971 3.148024 32.384464 2.488563
2004-03-04 11:09:52 51°12.875 2°33.738 5.147364 3.148761 32.393703 2.589691
2004-03-04 11:10:52 51°12.775 2°33.448 5.149134 3.144549 32.349121 2.690819
2004-03-04 11:11:52 51°12.675 2°33.158 5.135119 3.148971 32.396947 2.724529
2004-03-04 11:12:52 51°12.587 2°32.859 5.122872 3.133388 32.239739 2.6234
2004-03-04 11:13:52 51°12.504 2°32.556 5.134562 3.14655 32.387969 2.724529
2004-03-04 11:14:52 51°12.418 2°32.253 5.131931 3.141601 32.329057 3.162751
2004-03-04 11:15:52 51°12.332 2°31.944 5.141646 3.149603 32.415143 3.331298
2004-03-04 11:16:52 51°12.248 2°31.639 5.194549 3.148129 32.372143 3.061623
2004-03-04 11:17:52 51°12.163 2°31.337 5.225178 3.166345 32.536287 2.994204
2004-03-04 11:18:52 51°12.079 2°31.036 5.263014 3.177506 32.629303 3.027913
2004-03-04 11:19:52 51°11.996 2°30.737 5.27584 3.18414 32.682636 3.19646
2004-03-04 11:20:52 51°11.914 2°30.443 5.311728 3.187299 32.694738 3.331298
2004-03-04 11:21:52 51°11.83 2°30.149 5.378402 3.177716 32.537705 3.499845
2004-03-04 11:22:52 51°11.745 2°29.855 5.426069 3.20899 32.833794 3.938067
2004-03-04 11:23:52 51°11.659 2°29.563 5.424407 3.166764 32.3389 3.735811
2004-03-04 11:24:52 51°11.573 2°29.273 5.418413 3.212465 32.855317 3.23017
2004-03-04 11:25:52 51°11.492 2°28.979 5.440171 3.211939 32.843401 3.23017
2004-03-04 11:26:52 51°11.413 2°28.685 5.404759 3.219521 32.942095 2.65711
2004-03-04 11:27:52 51°11.351 2°28.382 5.391809 3.198776 32.723126 2.893076
2004-03-04 11:28:52 51°11.289 2°28.078 5.383694 3.216467 32.930497 3.162751
2004-03-04 11:29:52 51°11.228 2°27.77 5.38188 3.213729 32.907969 3.129042
2004-03-04 11:30:52 51°11.166 2°27.459 5.369025 3.209517 32.867002 3.432426
2004-03-04 11:31:52 51°11.103 2°27.144 5.364387 3.20362 32.812019 3.567264
2004-03-04 11:32:52 51°11.042 2°26.827 5.359496 3.208148 32.868513 3.76952
2004-03-04 11:33:52 51°10.982 2°26.511 5.359345 3.192247 32.689804 3.702101
2004-03-04 11:34:52 51°10.924 2°26.192 5.365194 3.206779 32.854681 3.836939
2004-03-04 11:35:52 51°10.935 2°25.858 5.38445 3.212255 32.905743 3.971777
2004-03-04 11:36:52 51°11.033 2°25.559 5.416649 3.21573 32.916166 3.80323
2004-03-04 11:37:52 51°11.206 2°25.339 5.439919 3.222891 32.971764 3.735811
2004-03-04 11:38:52 51°11.432 2°25.222 5.481099 3.232158 33.047752 3.80323
2004-03-04 11:39:52 51°11.677 2°25.268 5.514909 3.19709 32.609445 3.634683
2004-03-04 11:40:52 51°11.919 2°25.363 5.513852 3.246058 33.148733 3.76952
2004-03-04 11:41:52 51°12.15 2°25.523 5.500773 3.21952 32.857035 3.499845
2004-03-04 11:42:52 51°12.383 2°25.676 5.480898 3.226997 32.960314 3.331298
2004-03-04 11:43:52 51°12.618 2°25.822 5.485326 3.239213 33.105452 3.634683
2004-03-04 11:44:52 51°12.855 2°25.969 5.488597 3.232052 33.01753 3.533554
2004-03-04 11:45:52 51°13.095 2°26.114 5.488396 3.209095 32.762022 3.297589
2004-03-04 11:46:52 51°13.305 2°26.245 5.506357 3.24669 33.172154 3.129042
2004-03-04 11:47:52 51°13.418 2°26.329 5.534421 3.238581 33.065826 3.19646
2004-03-04 11:48:52 51°13.443 2°26.353 5.579308 3.251429 33.170145 3.19646
2004-03-04 11:49:52 51°13.49 2°26.429 5.607993 3.252692 33.15452 3.432426
2004-03-04 11:50:52 51°13.535 2°26.52 5.588553 3.261539 33.249349 3.533554
2004-03-04 11:51:52 51°13.575 2°26.605 5.585136 3.243214 33.044056 3.23017
2004-03-04 11:52:52 51°13.612 2°26.686 5.565991 3.243636 33.065843 3.162751
2004-03-04 11:53:52 51°13.647 2°26.765 5.559859 3.251955 33.167548 2.960494
2004-03-04 11:54:52 51°13.682 2°26.843 5.544125 3.250481 33.167123 2.724529
2004-03-04 11:55:52 51°13.715 2°26.919 5.534321 3.245848 33.128391 2.859366
2004-03-04 11:56:52 51°13.749 2°26.997 5.526275 3.235422 33.018149 2.791947
2004-03-04 11:57:52 51°13.781 2°27.075 5.514456 3.231631 32.980384 2.758238
2004-03-04 11:58:52 51°13.813 2°27.154 5.504898 3.247954 33.176184 2.859366
2004-03-04 11:59:52 51°13.845 2°27.234 5.494031 3.232263 33.007123 2.791947
2004-03-04 12:00:52 51°13.877 2°27.312 5.499666 3.233 33.021434 2.791947
2004-03-04 12:01:52 51°13.909 2°27.39 5.4891 3.235106 33.050396 2.65711
2004-03-04 12:02:52 51°13.941 2°27.468 5.478834 3.228156 32.977685 2.825657
2004-03-04 12:03:52 51°13.972 2°27.548 5.474355 3.233105 33.041402 2.6234
2004-03-04 12:04:52 51°14.001 2°27.625 5.470781 3.232052 33.037161 2.65711
2004-03-04 12:05:52 51°14.031 2°27.704 5.469221 3.224786 32.958277 2.6234
2004-03-04 12:06:52 51°14.068 2°27.825 5.460915 3.21236 32.816751 2.555982
2004-03-04 12:07:52 51°14.222 2°28.088 5.443948 3.223417 32.961523 2.690819
2004-03-04 12:08:52 51°14.43 2°28.333 5.435739 3.21594 32.879376 2.6234
2004-03-04 12:09:52 51°14.628 2°28.593 5.416146 3.217309 32.907654 3.129042
2004-03-04 12:10:52 51°14.821 2°28.857 5.404255 3.220153 32.958645 3.297589
2004-03-04 12:11:52 51°15.014 2°29.122 5.406422 3.207727 32.825422 2.859366
2004-03-04 12:12:52 51°15.204 2°29.391 5.399267 3.209096 32.841792 2.690819
2004-03-04 12:13:52 51°15.395 2°29.663 5.403701 3.201198 32.75736 2.825657
2004-03-04 12:14:52 51°15.583 2°29.938 5.400023 3.211413 32.86891 2.758238
2004-03-04 12:15:52 51°15.774 2°30.214 5.409445 3.187087 32.590718 2.758238
2004-03-04 12:16:52 51°15.963 2°30.491 5.409899 3.216783 32.924697 2.758238
2004-03-04 12:17:52 51°16.154 2°30.769 5.409395 3.21752 32.927939 2.791947
2004-03-04 12:18:52 51°16.344 2°31.049 5.41136 3.222891 32.98628 2.758238
2004-03-04 12:19:52 51°16.536 2°31.331 5.413929 3.199723 32.720305 2.825657
2004-03-04 12:20:52 51°16.729 2°31.611 5.421082 3.210465 32.839448 2.589691
2004-03-04 12:21:52 51°16.922 2°31.891 5.443041 3.224365 32.991039 2.724529
2004-03-04 12:22:52 51°17.113 2°32.169 5.443192 3.224786 32.982154 2.994204
2004-03-04 12:23:52 51°17.303 2°32.448 5.461519 3.220153 32.921132 2.859366
2004-03-04 12:24:52 51°17.495 2°32.726 5.467157 3.22605 32.970031 3.129042
2004-03-04 12:25:52 51°17.686 2°33.006 5.476569 3.235633 33.073447 2.758238
2004-03-04 12:26:52 51°17.878 2°33.288 5.481904 3.23142 33.019761 2.893076
2004-03-04 12:27:52 51°18.068 2°33.57 5.493931 3.230894 33.009533 2.6234
2004-03-04 12:28:52 51°18.265 2°33.84 5.508872 3.229946 32.988575 2.454853
2004-03-04 12:29:52 51°18.463 2°34.106 5.525219 3.233 33.006089 2.421144
2004-03-04 12:30:51 51°18.658 2°34.368 5.565137 3.243215 33.100318 2.454853
2004-03-04 12:31:52 51°18.859 2°34.631 5.59212 3.249849 33.12581 2.65711
2004-03-04 12:32:52 51°19.054 2°34.897 5.597143 3.251113 33.131553 2.522272
2004-03-04 12:33:52 51°19.251 2°35.146 5.594531 3.261433 33.248159 2.690819
2004-03-04 12:34:52 51°19.408 2°35.291 5.595033 3.24848 33.103521 2.454853
2004-03-04 12:35:52 51°19.518 2°35.35 5.588201 3.26354 33.277105 2.421144
2004-03-04 12:36:52 51°19.602 2°35.386 5.592873 3.259748 33.229117 2.353725
2004-03-04 12:37:52 51°19.675 2°35.436 5.597495 3.253324 33.155682 2.421144
2004-03-04 12:38:52 51°19.726 2°35.499 5.599655 3.250481 33.12271 2.421144
2004-03-04 12:39:52 51°19.764 2°35.564 5.601714 3.261644 33.243691 2.286306
2004-03-04 12:40:52 51°19.794 2°35.624 5.601312 3.244478 33.047263 2.218888
2004-03-04 12:41:52 51°19.821 2°35.681 5.599203 3.264488 33.277534 2.286306
2004-03-04 12:42:52 51°19.843 2°35.736 5.60297 3.25185 33.127937 2.320016
2004-03-04 12:43:52 51°19.866 2°35.793 5.607289 3.266699 33.293099 2.252597
2004-03-04 12:44:52 51°19.887 2°35.875 5.603824 3.252797 33.136081 2.252597
2004-03-04 12:45:52 51°19.904 2°35.973 5.606787 3.262381 33.246028 2.320016
2004-03-04 12:46:52 51°19.913 2°36.078 5.601212 3.265225 33.281581 2.286306
2004-03-04 12:47:52 51°19.913 2°36.183 5.601765 3.259748 33.218852 2.387435
2004-03-04 12:48:52 51°19.907 2°36.285 5.599655 3.210147 32.664235 2.353725
2004-03-04 12:49:52 51°19.891 2°36.379 5.594531 3.252166 33.141742 2.252597
2004-03-04 12:50:52 51°19.87 2°36.466 5.593175 3.257326 33.201748 2.421144
2004-03-04 12:51:52 51°19.845 2°36.55 5.587046 3.254272 33.17066 2.320016
2004-03-04 12:52:52 51°19.823 2°36.632 5.57971 3.253535 33.170019 2.421144
2004-03-04 12:53:52 51°19.796 2°36.714 5.570816 3.234579 32.965242 2.421144
2004-03-04 12:54:52 51°19.71 2°36.832 5.558 3.241951 33.057028 2.353725
2004-03-04 12:55:52 51°19.536 2°37.044 5.547292 3.242793 33.073369 2.488563
2004-03-04 12:56:52 51°19.362 2°37.28 5.529544 3.236053 33.013369 2.454853
2004-03-04 12:57:52 51°19.183 2°37.512 5.52376 3.248796 33.160894 2.555982
2004-03-04 12:58:52 51°19.007 2°37.747 5.493478 3.263435 33.339465 2.488563
2004-03-04 12:59:52 51°18.847 2°38.011 5.458146 3.253747 33.269257 2.421144
2004-03-04 13:00:52 51°18.687 2°38.275 5.429393 3.244269 33.201325 2.252597
2004-03-04 13:01:52 51°18.522 2°38.526 5.417002 3.239214 33.16545 2.387435
2004-03-04 13:02:52 51°18.359 2°38.78 5.396697 3.236687 33.144496 2.353725
2004-03-04 13:03:52 51°18.201 2°39.044 5.328731 3.227209 33.067791 2.320016
2004-03-04 13:04:52 51°18.046 2°39.301 5.237759 3.197829 32.840005 2.117759
2004-03-04 13:05:52 51°17.934 2°39.476 5.219771 3.186562 32.752765 1.915503
2004-03-04 13:06:52 51°17.869 2°39.52 5.204659 3.183825 32.742922 1.949212
2004-03-04 13:07:52 51°17.819 2°39.546 5.197936 3.18214 32.729705 1.949212
2004-03-04 13:08:52 51°17.778 2°39.588 5.195308 3.182035 32.729359 1.915503
2004-03-04 13:09:52 51°17.788 2°39.611 5.206226 3.183614 32.74479 1.982922
2004-03-04 13:10:52 51°17.797 2°39.633 5.199048 3.184772 32.752009 2.286306
2004-03-04 13:11:52 51°17.808 2°39.653 5.213858 3.185404 32.756643 2.218888
2004-03-04 13:12:52 51°17.819 2°39.674 5.212999 3.186668 32.771035 2.252597
2004-03-04 13:13:52 51°17.83 2°39.694 5.219417 3.188247 32.786463 2.320016
2004-03-04 13:14:52 51°17.841 2°39.709 5.229978 3.189827 32.796761 2.421144
2004-03-04 13:15:52 51°17.852 2°39.722 5.230585 3.191196 32.806368 2.421144
2004-03-04 13:16:52 51°17.864 2°39.732 5.239679 3.191617 32.806892 2.252597
2004-03-04 13:17:52 51°17.876 2°39.743 5.231898 3.191512 32.807402 2.286306
2004-03-04 13:18:52 51°17.889 2°39.753 5.22538 3.190353 32.800194 2.252597
2004-03-04 13:19:52 51°17.9 2°39.759 5.216284 3.188353 32.788516 2.353725
2004-03-04 13:20:52 51°17.844 2°39.742 5.205367 3.1873 32.77994 2.320016
2004-03-04 13:21:52 51°17.815 2°39.943 5.209967 3.184562 32.752171 2.151469
2004-03-04 13:22:52 51°17.936 2°40.164 5.200868 3.18393 32.737295 2.151469
2004-03-04 13:23:52 51°18.075 2°40.389 5.207541 3.182667 32.733142 2.454853
2004-03-04 13:24:52 51°18.224 2°40.66 5.216234 3.183088 32.73282 2.218888
2004-03-04 13:25:52 51°18.376 2°40.965 5.210219 3.184141 32.737987 2.353725
2004-03-04 13:26:52 51°18.528 2°41.275 5.211079 3.183088 32.733673 2.353725
2004-03-04 13:27:52 51°18.701 2°41.557 5.215425 3.182772 32.731782 2.320016
2004-03-04 13:28:52 51°18.879 2°41.832 5.215678 3.183298 32.728395 2.08405
2004-03-04 13:29:52 51°19.056 2°42.109 5.209461 3.182772 32.727517 2.353725
2004-03-04 13:30:52 51°19.237 2°42.379 5.209057 3.182245 32.716405 2.151469
2004-03-04 13:31:52 51°19.421 2°42.647 5.214768 3.182245 32.7147 2.185178
2004-03-04 13:32:52 51°19.598 2°42.923 5.216638 3.180244 32.696183 2.117759
2004-03-04 13:33:52 51°19.715 2°43.267 5.210169 3.179297 32.687096 2.320016
2004-03-04 13:34:52 51°19.816 2°43.628 5.205923 3.177507 32.673528 2.218888
2004-03-04 13:35:52 51°19.92 2°43.989 5.21588 3.177612 32.663659 2.387435
2004-03-04 13:36:52 51°20.026 2°44.351 5.230938 3.177612 32.660255 2.252597
2004-03-04 13:37:52 51°20.136 2°44.707 5.235334 3.178981 32.657968 2.151469
2004-03-04 13:38:52 51°20.25 2°45.068 5.194954 3.17003 32.59096 1.915503
2004-03-04 13:39:52 51°20.364 2°45.43 5.188432 3.164766 32.548001 2.252597
2004-03-04 13:40:52 51°20.465 2°45.74 5.164158 3.160764 32.510074 1.949212
2004-03-04 13:41:52 51°20.505 2°45.862 5.147768 3.158764 32.499163 2.286306
2004-03-04 13:42:52 51°20.519 2°45.916 5.148477 3.155079 32.472443 2.08405
2004-03-04 13:43:52 51°20.519 2°45.997 5.153384 3.155395 32.47689 2.185178
2004-03-04 13:44:52 51°20.504 2°46.098 5.145897 3.156237 32.482248 2.218888
2004-03-04 13:45:52 51°20.491 2°46.188 5.138054 3.154342 32.466588 2.117759
2004-03-04 13:46:52 51°20.478 2°46.267 5.136789 3.151604 32.445563 2.218888
2004-03-04 13:47:52 51°20.462 2°46.335 5.125656 3.150656 32.439847 2.151469
2004-03-04 13:48:52 51°20.444 2°46.394 5.128439 3.150972 32.441752 2.218888
2004-03-04 13:49:52 51°20.423 2°46.445 5.125858 3.150025 32.437731 2.286306
2004-03-04 13:50:52 51°20.401 2°46.489 5.125807 3.149919 32.433988 2.454853
2004-03-04 13:51:52 51°20.377 2°46.529 5.123125 3.149182 32.427282 2.454853
2004-03-04 13:52:52 51°20.352 2°46.564 5.12267 3.148656 32.422128 2.488563
2004-03-04 13:53:52 51°20.326 2°46.595 5.125453 3.148024 32.415774 2.421144
2004-03-04 13:54:52 51°20.298 2°46.621 5.12353 3.148445 32.418033 2.6234
2004-03-04 13:55:52 51°20.27 2°46.643 5.127073 3.147813 32.41168 2.488563
2004-03-04 13:56:52 51°20.241 2°46.658 5.138864 3.148445 32.412952 2.488563
2004-03-04 13:57:52 51°20.211 2°46.667 5.134562 3.148656 32.417046 2.522272
2004-03-04 13:58:52 51°20.108 2°46.708 5.138813 3.14855 32.413305 2.589691
2004-03-04 13:59:52 51°19.907 2°46.83 5.141394 3.149393 32.41359 2.387435
2004-03-04 14:00:52 51°19.733 2°47.058 5.14873 3.14855 32.407379 2.488563
2004-03-04 14:01:52 51°19.575 2°47.318 5.143721 3.147708 32.395243 2.421144
2004-03-04 14:02:52 51°19.437 2°47.611 5.152777 3.14655 32.375284 2.353725
2004-03-04 14:03:52 51°19.302 2°47.899 5.092548 3.14318 32.335223 2.65711
2004-03-04 14:04:52 51°19.169 2°48.19 5.031906 3.120017 32.162294 2.758238
2004-03-04 14:05:52 51°19.042 2°48.489 5.027445 3.113068 32.105741 2.926785
2004-03-04 14:06:52 51°18.916 2°48.788 5.038343 3.111594 32.092285 2.859366
2004-03-04 14:07:52 51°18.793 2°49.089 5.05927 3.114226 32.107178 3.095332
2004-03-04 14:08:52 51°18.671 2°49.39 5.049948 3.115805 32.1151 3.19646
2004-03-04 14:09:52 51°18.554 2°49.699 5.02922 3.112963 32.086041 3.263879
2004-03-04 14:10:52 51°18.441 2°50.013 4.947914 3.103698 32.018975 3.365007
2004-03-04 14:11:52 51°18.326 2°50.324 4.909634 3.084958 31.879585 2.960494
2004-03-04 14:12:52 51°18.218 2°50.642 4.89846 3.078009 31.834488 2.926785
2004-03-04 14:13:52 51°18.165 2°50.914 4.904352 3.08401 31.890552 3.263879
2004-03-04 14:14:52 51°18.179 2°51.042 4.904758 3.083905 31.893543 3.23017
2004-03-04 14:15:52 51°18.212 2°51.119 4.912325 3.085379 31.901171 3.095332
2004-03-04 14:16:52 51°18.236 2°51.196 4.908161 3.084852 31.897668 3.061623
2004-03-04 14:17:52 51°18.25 2°51.266 4.901254 3.08401 31.893069 3.129042
2004-03-04 14:18:52 51°18.256 2°51.327 4.902219 3.083905 31.894382 3.19646
2004-03-04 14:19:52 51°18.256 2°51.384 4.902574 3.083063 31.888943 3.23017
2004-03-04 14:20:52 51°18.253 2°51.435 4.904301 3.082957 31.889417 3.061623
2004-03-04 14:21:52 51°18.244 2°51.482 4.905469 3.082747 31.886169 3.061623
2004-03-04 14:22:52 51°18.229 2°51.526 4.90359 3.08401 31.898104 3.027913
2004-03-04 14:23:52 51°18.209 2°51.56 4.90618 3.082958 31.892774 3.129042
2004-03-04 14:24:52 51°18.183 2°51.58 4.895006 3.082326 31.88219 3.027913
2004-03-04 14:25:52 51°18.155 2°51.591 4.885405 3.081799 31.879524 2.690819
2004-03-04 14:26:52 51°18.124 2°51.594 4.881645 3.080326 31.87021 2.825657
2004-03-04 14:27:52 51°18.094 2°51.588 4.883576 3.078852 31.858376 2.926785
2004-03-04 14:28:52 51°18.065 2°51.573 4.874024 3.078641 31.858483 2.994204
2004-03-04 14:29:52 51°18.036 2°51.551 4.872855 3.078009 31.858804 3.061623
2004-03-04 14:30:52 51°18.007 2°51.523 4.87946 3.078536 31.862313 2.926785
2004-03-04 14:31:52 51°17.976 2°51.498 4.875751 3.079799 31.870899 3.027913
2004-03-04 14:32:52 51°17.892 2°51.533 4.886167 3.08001 31.879185 3.162751
2004-03-04 14:33:52 51°17.723 2°51.726 4.867316 3.081273 31.876857 2.555982
2004-03-04 14:34:52 51°17.544 2°51.94 4.85766 3.077588 31.850628 2.454853
2004-03-04 14:35:52 51°17.365 2°52.157 4.843681 3.073798 31.819821 2.421144
2004-03-04 14:36:52 51°17.191 2°52.386 4.813781 3.060954 31.698714 2.454853
2004-03-04 14:37:52 51°17.02 2°52.62 4.770482 3.052322 31.621565 2.454853
2004-03-04 14:38:52 51°16.861 2°52.873 4.734181 3.030846 31.431283 2.353725
2004-03-04 14:39:52 51°16.7 2°53.13 4.693885 3.021161 31.345157 2.421144
2004-03-04 14:40:52 51°16.549 2°53.364 4.689452 3.012845 31.278787 2.421144
2004-03-04 14:41:52 51°16.454 2°53.449 4.647138 3.002003 31.180859 2.6234
2004-03-04 14:42:52 51°16.403 2°53.441 4.656062 2.998845 31.156183 2.589691
2004-03-04 14:43:52 51°16.37 2°53.418 4.665851 3.000003 31.152127 2.522272
2004-03-04 14:44:52 51°16.344 2°53.386 4.678188 3.000003 31.152952 2.488563
2004-03-04 14:45:52 51°16.322 2°53.347 4.65392 2.998634 31.147984 2.589691
2004-03-04 14:46:52 51°16.304 2°53.304 4.670337 2.998739 31.142587 2.6234
2004-03-04 14:47:52 51°16.288 2°53.256 4.671306 2.997897 31.138703 2.589691
2004-03-04 14:48:52 51°16.275 2°53.205 4.663098 3.000213 31.144637 2.555982
2004-03-04 14:49:52 51°16.263 2°53.152 4.645812 2.998318 31.141058 2.522272
2004-03-04 14:50:52 51°16.254 2°53.097 4.677168 2.998213 31.139024 2.555982
2004-03-04 14:51:52 51°16.247 2°53.04 4.678239 2.998634 31.143856 2.6234
2004-03-04 14:52:52 51°16.242 2°52.981 4.665698 2.999792 31.143933 2.589691
2004-03-04 14:53:52 51°16.238 2°52.921 4.665443 2.997897 31.137052 2.825657
2004-03-04 14:54:52 51°16.237 2°52.861 4.648821 2.997687 31.135461 2.589691
2004-03-04 14:55:52 51°16.236 2°52.8 4.680991 2.997792 31.134193 2.690819
2004-03-04 14:56:52 51°16.237 2°52.74 4.671714 2.999897 31.14184 2.454853
2004-03-04 14:57:52 51°16.238 2°52.689 4.672275 2.999476 31.140311 2.522272
2004-03-04 14:58:52 51°16.239 2°52.643 4.659529 2.999055 31.140432 2.454853
2004-03-04 14:59:52 51°16.239 2°52.602 4.674721 2.997897 31.13375 2.555982
2004-03-04 15:00:52 51°16.24 2°52.566 4.670949 2.997792 31.130067 2.555982
2004-03-04 15:01:52 51°16.24 2°52.534 4.662843 2.999476 31.138661 2.488563
2004-03-04 15:02:52 51°16.239 2°52.506 4.6452 2.998424 31.14144 2.555982
2004-03-04 15:03:52 51°16.236 2°52.481 4.648923 2.998003 31.144039 2.65711
2004-03-04 15:04:52 51°16.17 2°52.418 4.653869 2.997266 31.151277 2.555982
2004-03-04 15:05:52 51°15.977 2°52.451 4.635968 2.997161 31.150068 2.488563
2004-03-04 15:06:52 51°15.802 2°52.668 4.655654 2.995476 31.125775 3.365007
2004-03-04 15:07:52 51°15.617 2°52.869 5.012997 2.995897 31.124829 -0.578993
2004-03-04 15:08:52 51°15.426 2°53.06 5.110116 2.996318 31.127186 -0.612702
2004-03-04 15:09:52 51°15.234 2°53.249 5.257055 2.996529 31.128777 -0.578993
2004-03-04 15:10:52 51°15.043 2°53.44 5.372907 2.996739 31.128716 -0.646411
2004-03-04 15:11:52 51°14.859 2°53.63 5.510784 2.997161 31.131898 -0.646411
2004-03-04 15:12:52 51°14.732 2°53.766 5.622656 2.997581 31.121052 -0.612702
2004-03-04 15:13:52 51°14.65 2°53.83 5.741949 2.998108 31.115546 -0.646411
2004-03-04 15:14:52 51°14.603 2°53.89 5.865119 2.998844 31.111633 -0.646411
2004-03-04 15:15:52 51°14.561 2°53.975 5.985803 2.999897 31.110519 -0.646411
2004-03-04 15:16:52 51°14.516 2°54.108 6.085026 3.00116 31.114288 -0.612702
2004-03-04 15:17:52 51°14.468 2°54.307 6.192554 3.002528 31.120084 -0.646411
2004-03-04 15:18:52 51°14.428 2°54.588 6.310381 3.004002 31.125436 -0.646411
2004-03-04 15:19:52 51°14.39 2°54.872 6.394317 3.005581 31.128701 -0.646411
2004-03-04 15:20:52 51°14.327 2°55.146 6.492259 3.00737 31.134372 -0.680121
2004-03-04 15:21:52 51°14.229 2°55.314 6.620753 3.008949 31.138455 -0.646411
2004-03-04 15:22:52 51°14.145 2°55.401 6.703293 3.010633 31.147027 -0.680121